Time;durP1;ratioP1;P1;durP2;ratioP2;P2;SDS_P1;SDS_P2;PMS_P1;PMS_P2;Temp;Humidity;BMP_temperature;BMP_pressure;BME280_temperature;BME280_humidity;BME280_pressure;Samples;Min_cycle;Max_cycle;Signal;HPM_P1;HPM_P2
2023/03/11 00:00:40;;;;;;;1.00;0.67;;;2.80;99.90;;;;;;4967260;28;20475;-73
2023/03/11 00:03:09;;;;;;;0.50;0.10;;;2.80;99.90;;;;;;4958954;28;20832;-73
2023/03/11 00:05:40;;;;;;;0.50;0.30;;;2.80;99.90;;;;;;4959495;28;20448;-72
2023/03/11 00:08:09;;;;;;;1.00;0.80;;;2.80;99.90;;;;;;4974433;28;20455;-73
2023/03/11 00:10:40;;;;;;;1.87;1.00;;;2.90;99.90;;;;;;4973640;28;20981;-72
2023/03/11 00:13:10;;;;;;;0.50;0.30;;;2.90;99.90;;;;;;4954972;29;20515;-75
2023/03/11 00:15:39;;;;;;;0.60;0.20;;;2.90;99.90;;;;;;4955565;28;20870;-75
2023/03/11 00:18:08;;;;;;;0.73;0.50;;;;;;;;;;4955625;29;20610;-73
2023/03/11 00:20:38;;;;;;;0.60;0.40;;;2.90;99.90;;;;;;4954861;29;20447;-74
2023/03/11 00:23:08;;;;;;;0.70;0.43;;;2.80;99.90;;;;;;4955685;28;20483;-72
2023/03/11 00:25:37;;;;;;;0.50;0.10;;;2.80;99.90;;;;;;4973073;28;20499;-73
2023/03/11 00:28:09;;;;;;;0.60;0.40;;;2.80;99.90;;;;;;4965847;28;20456;-72
2023/03/11 00:30:37;;;;;;;0.83;0.20;;;2.80;99.90;;;;;;4954467;29;20463;-71
2023/03/11 00:33:05;;;;;;;0.50;0.10;;;2.80;99.90;;;;;;4954652;29;20555;-72
2023/03/11 00:35:34;;;;;;;0.60;0.57;;;2.80;99.90;;;;;;4954163;29;20560;-71
2023/03/11 00:38:06;;;;;;;0.50;0.10;;;2.90;99.90;;;;;;4953915;28;20873;-73
2023/03/11 00:40:35;;;;;;;0.50;0.20;;;2.90;99.90;;;;;;4954789;28;20455;-72
2023/03/11 00:43:04;;;;;;;0.50;0.10;;;2.90;99.90;;;;;;4953941;29;20484;-73
2023/03/11 00:45:32;;;;;;;0.60;0.60;;;2.90;99.90;;;;;;4953675;29;20511;-72
2023/03/11 00:48:00;;;;;;;0.50;0.20;;;2.80;99.90;;;;;;4953987;29;20454;-73
2023/03/11 00:50:31;;;;;;;0.50;0.10;;;2.80;99.90;;;;;;4953451;28;20444;-72
2023/03/11 00:52:59;;;;;;;0.60;0.30;;;2.80;99.90;;;;;;4954424;28;20462;-71
2023/03/11 00:55:31;;;;;;;2.10;1.00;;;2.80;99.90;;;;;;4953662;29;20775;-71
2023/03/11 00:58:01;;;;;;;0.60;0.30;;;2.70;99.90;;;;;;4953880;29;20959;-71
2023/03/11 05:01:29;;;;;;;0.60;0.37;;;3.00;99.90;;;;;;5637451;23;21006;-71
2023/03/11 05:03:56;;;;;;;0.50;0.10;;;2.80;99.90;;;;;;5029509;28;20988;-72
2023/03/11 05:06:24;;;;;;;0.60;0.37;;;2.80;99.90;;;;;;5029288;28;20449;-72
2023/03/11 05:08:52;;;;;;;1.80;0.53;;;2.70;99.90;;;;;;5027258;28;20456;-71
2023/03/11 05:11:20;;;;;;;0.50;0.10;;;2.70;99.90;;;;;;5031896;28;20595;-71
2023/03/11 05:13:48;;;;;;;0.50;0.10;;;2.70;99.90;;;;;;5031952;28;21006;-71
2023/03/11 05:16:16;;;;;;;0.50;0.10;;;2.70;99.90;;;;;;5032309;28;20444;-73
2023/03/11 05:18:45;;;;;;;0.50;0.10;;;2.70;99.90;;;;;;5031898;28;20530;-74
2023/03/11 05:21:13;;;;;;;0.60;0.30;;;2.80;99.90;;;;;;5024971;28;20835;-72
2023/03/11 05:23:41;;;;;;;0.50;0.30;;;2.80;99.90;;;;;;5032602;28;20494;-77
2023/03/11 05:26:09;;;;;;;0.50;0.10;;;2.80;99.90;;;;;;5035348;28;20451;-73
2023/03/11 05:28:37;;;;;;;0.50;0.10;;;2.80;99.90;;;;;;5035463;28;20439;-73
2023/03/11 05:31:08;;;;;;;0.60;0.40;;;2.90;99.90;;;;;;5035603;28;20494;-72
2023/03/11 05:33:36;;;;;;;0.50;0.10;;;2.90;99.90;;;;;;5035451;28;20474;-73
2023/03/11 05:36:08;;;;;;;0.50;0.10;;;2.90;99.90;;;;;;5035081;28;20448;-75
2023/03/11 05:38:36;;;;;;;0.50;0.10;;;2.90;99.90;;;;;;5035433;28;20931;-74
2023/03/11 05:41:05;;;;;;;0.50;0.10;;;2.90;99.90;;;;;;5035373;28;21113;-74
2023/03/11 05:43:32;;;;;;;0.50;0.10;;;2.90;99.90;;;;;;5035222;28;20982;-73
2023/03/11 05:46:00;;;;;;;2.40;1.23;;;2.90;99.90;;;;;;5034958;28;20874;-73
2023/03/11 05:48:28;;;;;;;0.50;0.30;;;2.90;99.90;;;;;;5035221;28;20454;-72
2023/03/11 05:50:56;;;;;;;0.50;0.10;;;2.90;99.90;;;;;;5035480;28;20529;-72
2023/03/11 05:53:25;;;;;;;1.90;1.27;;;2.90;99.90;;;;;;5035655;28;20439;-71
2023/03/11 05:55:57;;;;;;;0.50;0.10;;;2.90;99.90;;;;;;5035182;28;20496;-73
2023/03/11 05:58:24;;;;;;;0.50;0.20;;;2.90;99.90;;;;;;5035411;28;20450;-73
2023/03/11 06:00:52;;;;;;;0.50;0.10;;;2.90;99.90;;;;;;5035214;28;20478;-73
2023/03/11 06:03:20;;;;;;;0.50;0.10;;;2.80;99.90;;;;;;5035449;28;20451;-73
2023/03/11 06:05:51;;;;;;;0.50;0.20;;;2.80;99.90;;;;;;5035677;28;20488;-72
2023/03/11 06:08:20;;;;;;;0.50;0.10;;;2.80;99.90;;;;;;5036237;28;20806;-72
2023/03/11 06:10:50;;;;;;;0.50;0.10;;;2.90;99.90;;;;;;5035223;28;20473;-71
2023/03/11 06:13:17;;;;;;;0.50;0.10;;;2.90;99.90;;;;;;5034993;28;20517;-73
2023/03/11 06:15:45;;;;;;;0.50;0.10;;;2.90;99.90;;;;;;5034818;28;20962;-74
2023/03/11 06:18:13;;;;;;;0.50;0.10;;;2.90;99.90;;;;;;5035810;28;20454;-73
2023/03/11 06:20:41;;;;;;;0.50;0.10;;;3.00;99.90;;;;;;5035268;28;20514;-74
2023/03/11 06:23:08;;;;;;;0.50;0.10;;;3.00;99.90;;;;;;5036021;28;20445;-71
2023/03/11 06:25:36;;;;;;;0.50;0.10;;;3.10;99.90;;;;;;5036237;28;20480;-73
2023/03/11 06:28:05;;;;;;;0.50;0.10;;;3.10;99.90;;;;;;5035426;28;20442;-73
2023/03/11 06:30:33;;;;;;;0.83;0.83;;;3.10;99.90;;;;;;5036225;28;20874;-73
2023/03/11 06:33:01;;;;;;;0.50;0.10;;;3.10;99.90;;;;;;5034664;28;20474;-73
2023/03/11 06:35:29;;;;;;;0.50;0.20;;;3.00;99.90;;;;;;5033041;28;20440;-72
2023/03/11 06:37:57;;;;;;;0.50;0.10;;;3.00;99.90;;;;;;5034543;28;20463;-72
2023/03/11 06:40:24;;;;;;;0.50;0.10;;;3.00;99.90;;;;;;5034899;28;20456;-74
2023/03/11 06:42:52;;;;;;;0.50;0.10;;;3.00;99.90;;;;;;5036370;28;20477;-74
2023/03/11 06:45:21;;;;;;;0.50;0.10;;;3.10;99.90;;;;;;5034900;28;20872;-74
2023/03/11 06:47:49;;;;;;;0.50;0.10;;;3.10;99.90;;;;;;5035179;28;21024;-72
2023/03/11 06:50:17;;;;;;;0.60;0.43;;;3.10;99.90;;;;;;5035658;28;20863;-72
2023/03/11 06:52:45;;;;;;;0.50;0.10;;;3.10;99.90;;;;;;5035975;28;20477;-71
2023/03/11 06:55:13;;;;;;;0.60;0.30;;;3.20;99.90;;;;;;5035359;28;20944;-74
2023/03/11 06:57:41;;;;;;;0.50;0.10;;;3.20;99.90;;;;;;5036396;28;20956;-74
2023/03/11 07:00:12;;;;;;;0.50;0.10;;;3.30;99.90;;;;;;5034106;28;20448;-72
2023/03/11 07:02:41;;;;;;;0.50;0.10;;;3.30;99.90;;;;;;5033655;28;20531;-74
2023/03/11 07:05:11;;;;;;;0.50;0.10;;;3.30;99.90;;;;;;5033522;28;20479;-73
2023/03/11 07:07:39;;;;;;;0.50;0.10;;;3.40;99.90;;;;;;5033622;28;20445;-73
2023/03/11 07:10:07;;;;;;;0.50;0.20;;;3.40;99.90;;;;;;5033522;28;20451;-72
2023/03/11 07:12:35;;;;;;;0.50;0.20;;;3.40;99.90;;;;;;5033451;28;20813;-72
2023/03/11 07:15:03;;;;;;;0.50;0.10;;;3.40;99.90;;;;;;5032861;28;20446;-74
2023/03/11 07:17:32;;;;;;;0.50;0.10;;;3.40;99.90;;;;;;5033807;28;20473;-73
2023/03/11 07:20:01;;;;;;;0.50;0.10;;;3.50;99.90;;;;;;5033401;28;20971;-74
2023/03/11 07:22:30;;;;;;;0.50;0.20;;;3.40;99.90;;;;;;5033012;28;20548;-74
2023/03/11 07:24:58;;;;;;;0.50;0.10;;;3.50;99.90;;;;;;5032964;28;20554;-73
2023/03/11 07:27:27;;;;;;;1.00;0.60;;;3.60;99.90;;;;;;5033315;28;20836;-72
2023/03/11 07:29:55;;;;;;;0.60;0.40;;;3.70;99.90;;;;;;5033661;28;20446;-74
2023/03/11 07:32:23;;;;;;;0.50;0.10;;;3.60;99.90;;;;;;5033153;28;20459;-75
2023/03/11 07:34:51;;;;;;;0.50;0.10;;;3.60;99.90;;;;;;5032651;28;20439;-72
2023/03/11 07:37:20;;;;;;;0.50;0.20;;;3.70;99.90;;;;;;5033130;28;20448;-74
2023/03/11 07:39:48;;;;;;;0.50;0.10;;;3.80;99.90;;;;;;5033536;28;20451;-73
2023/03/11 07:42:15;;;;;;;0.60;0.33;;;3.80;99.90;;;;;;5033288;28;20464;-75
2023/03/11 07:44:44;;;;;;;2.30;0.47;;;3.80;99.90;;;;;;5037990;28;20486;-73
2023/03/11 07:47:11;;;;;;;1.23;1.13;;;3.80;99.90;;;;;;5040313;28;20509;-74
2023/03/11 07:49:39;;;;;;;0.50;0.10;;;3.80;99.90;;;;;;5039159;28;20927;-73
2023/03/11 07:52:07;;;;;;;0.50;0.10;;;3.80;99.90;;;;;;5034595;28;20964;-73
2023/03/11 07:54:36;;;;;;;0.50;0.10;;;3.90;99.90;;;;;;5032719;28;20861;-74
2023/03/11 07:57:06;;;;;;;0.50;0.10;;;3.90;99.90;;;;;;5033020;28;20937;-74
2023/03/11 07:59:34;;;;;;;0.50;0.10;;;4.00;99.90;;;;;;5025034;28;20934;-74
2023/03/11 08:02:03;;;;;;;0.50;0.10;;;4.00;99.90;;;;;;5022361;28;21001;-74
2023/03/11 08:04:31;;;;;;;1.80;0.70;;;4.10;99.90;;;;;;5019797;28;20535;-74
2023/03/11 08:06:59;;;;;;;0.50;0.10;;;4.00;99.90;;;;;;5017687;28;20455;-73
2023/03/11 08:09:27;;;;;;;0.50;0.10;;;4.00;99.90;;;;;;5014533;28;20580;-73
2023/03/11 08:11:56;;;;;;;0.50;0.10;;;4.10;99.90;;;;;;5013390;28;20467;-73
2023/03/11 08:14:23;;;;;;;0.70;0.63;;;4.10;99.90;;;;;;5012708;28;20475;-74
2023/03/11 08:16:51;;;;;;;0.60;0.30;;;4.10;99.90;;;;;;5013058;28;20451;-73
2023/03/11 08:19:19;;;;;;;0.50;0.10;;;4.10;99.90;;;;;;5012835;28;20465;-73
2023/03/11 08:21:47;;;;;;;0.50;0.10;;;4.10;99.90;;;;;;5012447;28;20830;-73
2023/03/11 08:24:15;;;;;;;0.50;0.10;;;4.10;99.90;;;;;;5031536;28;20450;-74
2023/03/11 08:26:43;;;;;;;2.67;0.60;;;4.10;99.90;;;;;;5031961;28;21014;-72
2023/03/11 08:29:12;;;;;;;0.50;0.20;;;4.10;99.90;;;;;;5032105;28;20446;-75
2023/03/11 08:31:40;;;;;;;0.50;0.10;;;4.10;99.90;;;;;;5032240;28;20462;-74
2023/03/11 08:34:10;;;;;;;0.50;0.10;;;4.10;99.90;;;;;;5031990;28;20493;-73
2023/03/11 08:36:38;;;;;;;0.50;0.10;;;4.20;99.90;;;;;;5031968;28;21000;-71
2023/03/11 08:39:06;;;;;;;0.50;0.10;;;4.20;99.90;;;;;;5032446;28;20463;-74
2023/03/11 08:41:34;;;;;;;0.50;0.20;;;4.40;99.90;;;;;;5032535;28;20469;-74
2023/03/11 08:44:02;;;;;;;0.50;0.10;;;4.40;99.90;;;;;;5032086;28;20454;-74
2023/03/11 08:46:33;;;;;;;0.50;0.10;;;4.50;99.90;;;;;;5032597;28;20481;-75
2023/03/11 08:49:02;;;;;;;0.50;0.17;;;4.50;99.90;;;;;;5032760;28;20470;-74
2023/03/11 08:51:31;;;;;;;2.30;1.03;;;4.60;99.90;;;;;;5029800;28;20496;-75
2023/03/11 08:53:59;;;;;;;0.50;0.10;;;4.60;99.90;;;;;;5024819;28;20466;-72
2023/03/11 08:56:27;;;;;;;0.50;0.10;;;4.60;99.90;;;;;;5024594;28;20454;-73
2023/03/11 08:58:54;;;;;;;0.50;0.20;;;4.50;99.90;;;;;;5036472;28;20526;-73
2023/03/11 09:01:23;;;;;;;0.50;0.20;;;4.60;99.90;;;;;;5034717;28;20583;-72
2023/03/11 09:03:52;;;;;;;0.60;0.30;;;4.60;99.90;;;;;;5014873;28;21218;-72
2023/03/11 09:06:20;;;;;;;3.70;3.20;;;4.60;99.90;;;;;;5024688;28;20482;-74
2023/03/11 09:08:49;;;;;;;0.50;0.10;;;4.50;99.90;;;;;;5013960;28;21081;-72
2023/03/11 09:11:17;;;;;;;0.50;0.10;;;4.50;99.90;;;;;;5013606;28;20468;-74
2023/03/11 09:13:45;;;;;;;1.00;0.80;;;4.50;99.90;;;;;;5032933;28;20509;-75
2023/03/11 09:16:15;;;;;;;1.00;0.60;;;4.50;99.90;;;;;;5033800;28;20451;-72
2023/03/11 09:18:43;;;;;;;0.50;0.10;;;4.50;99.90;;;;;;5035011;28;20526;-74
2023/03/11 09:21:13;;;;;;;0.60;0.40;;;4.40;99.90;;;;;;5035214;28;20501;-73
2023/03/11 09:23:41;;;;;;;0.50;0.10;;;4.40;99.90;;;;;;5021649;28;20458;-72
2023/03/11 09:26:11;;;;;;;0.50;0.10;;;4.40;99.90;;;;;;5016214;28;20486;-73
2023/03/11 09:28:40;;;;;;;0.50;0.10;;;4.40;99.90;;;;;;5030786;28;20453;-73
2023/03/11 09:31:08;;;;;;;0.63;0.63;;;4.40;99.90;;;;;;5036181;28;20992;-73
2023/03/11 09:33:38;;;;;;;0.50;0.10;;;4.40;99.90;;;;;;5035835;28;20439;-72
2023/03/11 09:36:07;;;;;;;0.50;0.10;;;4.50;99.90;;;;;;5035330;28;20449;-72
2023/03/11 09:38:36;;;;;;;0.50;0.10;;;4.50;99.90;;;;;;5035445;28;20458;-73
2023/03/11 09:41:09;;;;;;;0.50;0.10;;;4.50;99.90;;;;;;5035402;28;20481;-72
2023/03/11 09:43:54;;;;;;;0.50;0.10;;;4.50;99.90;;;;;;5035747;28;20446;-76
2023/03/11 09:46:57;;;;;;;0.50;0.20;;;4.60;99.90;;;;;;5035574;28;20557;-73
2023/03/11 09:49:32;;;;;;;0.50;0.10;;;4.60;99.90;;;;;;5033885;28;20451;-73
2023/03/11 09:52:08;;;;;;;0.50;0.10;;;4.60;99.90;;;;;;5015397;28;20525;-73
2023/03/11 09:54:42;;;;;;;0.50;0.10;;;4.60;99.90;;;;;;5015214;28;20463;-74
2023/03/11 09:57:15;;;;;;;0.50;0.10;;;4.70;99.90;;;;;;5015593;28;20447;-72
2023/03/11 09:59:44;;;;;;;0.50;0.10;;;4.70;99.90;;;;;;5015367;28;20454;-73
2023/03/11 10:02:17;;;;;;;0.50;0.10;;;4.80;99.90;;;;;;5015304;28;20825;-73
2023/03/11 10:04:51;;;;;;;0.50;0.10;;;4.90;99.90;;;;;;5015387;28;20522;-72
2023/03/11 10:07:25;;;;;;;0.50;0.10;;;4.90;99.90;;;;;;5016313;28;20481;-74
2023/03/11 10:09:56;;;;;;;0.50;0.10;;;5.00;99.90;;;;;;5015781;28;20458;-75
2023/03/11 10:12:43;;;;;;;0.50;0.10;;;5.10;99.90;;;;;;5033688;28;20991;-73
2023/03/11 10:15:24;;;;;;;0.50;0.20;;;2.80;99.90;;;;;;5021814;28;20442;-74
2023/03/11 10:18:21;;;;;;;0.50;0.10;;;5.20;99.90;;;;;;5014860;28;20449;-73
2023/03/11 10:20:56;;;;;;;0.50;0.20;;;5.20;99.90;;;;;;5024576;28;20462;-74
2023/03/11 10:23:32;;;;;;;0.60;0.30;;;5.10;99.90;;;;;;5032692;28;20438;-72
2023/03/11 10:26:09;;;;;;;0.50;0.10;;;5.20;99.90;;;;;;5017693;28;21005;-72
2023/03/11 10:28:41;;;;;;;0.50;0.10;;;5.20;99.90;;;;;;5026111;28;20504;-73
2023/03/11 10:31:20;;;;;;;0.50;0.10;;;5.20;99.90;;;;;;5014488;28;20467;-73
2023/03/11 10:33:52;;;;;;;0.50;0.10;;;5.20;99.90;;;;;;5016115;28;20441;-72
2023/03/11 10:36:26;;;;;;;0.70;0.30;;;5.30;99.90;;;;;;5028803;28;20450;-72
2023/03/11 10:38:55;;;;;;;0.50;0.10;;;5.30;99.90;;;;;;5025619;28;20443;-73
2023/03/11 10:41:31;;;;;;;0.50;0.10;;;5.30;99.90;;;;;;5019774;28;20462;-76
2023/03/11 10:44:06;;;;;;;0.50;0.10;;;5.30;99.90;;;;;;5029542;28;20895;-73
2023/03/11 10:46:33;;;;;;;0.50;0.30;;;5.50;99.90;;;;;;5013570;28;20508;-73
2023/03/11 10:49:01;;;;;;;0.50;0.10;;;5.60;99.90;;;;;;5033714;28;20446;-74
2023/03/11 10:51:34;;;;;;;3.03;0.43;;;5.70;99.90;;;;;;5052343;28;20490;-73
2023/03/11 10:54:03;;;;;;;0.50;0.10;;;5.80;99.90;;;;;;5048700;28;20449;-76
2023/03/11 10:56:35;;;;;;;0.50;0.10;;;5.80;99.90;;;;;;5014429;28;20460;-74
2023/03/11 10:59:06;;;;;;;0.50;0.10;;;5.90;99.90;;;;;;5022789;28;20463;-73
2023/03/11 11:01:34;;;;;;;0.50;0.20;;;5.90;99.90;;;;;;5026790;28;20470;-72
2023/03/11 11:04:02;;;;;;;0.50;0.10;;;5.90;99.90;;;;;;5033132;28;20453;-73
2023/03/11 11:06:32;;;;;;;0.50;0.10;;;5.90;99.90;;;;;;5025081;28;21080;-74
2023/03/11 11:09:14;;;;;;;0.50;0.10;;;5.90;99.90;;;;;;5026623;28;20452;-74
2023/03/11 11:11:59;;;;;;;0.50;0.10;;;6.00;99.90;;;;;;5031874;28;20577;-73
2023/03/11 11:14:42;;;;;;;0.50;0.10;;;6.00;99.90;;;;;;5015573;28;20823;-73
2023/03/11 11:17:23;;;;;;;0.50;0.10;;;6.00;99.90;;;;;;5030816;28;20443;-72
2023/03/11 11:19:51;;;;;;;0.50;0.10;;;6.00;99.90;;;;;;5026365;28;20929;-74
2023/03/11 11:22:22;;;;;;;1.37;1.13;;;6.00;99.90;;;;;;5029321;28;21043;-73
2023/03/11 11:24:51;;;;;;;0.97;0.60;;;6.00;99.90;;;;;;5023750;28;20957;-75
2023/03/11 11:27:22;;;;;;;0.50;0.10;;;6.00;99.90;;;;;;5022869;28;20498;-75
2023/03/11 11:30:14;;;;;;;0.50;0.10;;;6.00;99.90;;;;;;5021343;28;20444;-74
2023/03/11 11:32:42;;;;;;;0.50;0.10;;;6.00;99.90;;;;;;5027092;28;20506;-75
2023/03/11 11:35:13;;;;;;;0.50;0.13;;;6.00;99.90;;;;;;5032701;28;20446;-77
2023/03/11 11:37:45;;;;;;;0.50;0.10;;;6.00;99.90;;;;;;5032533;28;20450;-75
2023/03/11 11:40:28;;;;;;;0.50;0.10;;;6.10;99.90;;;;;;5028069;28;20451;-75
2023/03/11 11:43:02;;;;;;;0.50;0.10;;;6.20;99.90;;;;;;5030272;28;20504;-76
2023/03/11 11:45:35;;;;;;;0.50;0.10;;;6.20;99.90;;;;;;5031749;28;20454;-76
2023/03/11 11:48:07;;;;;;;0.50;0.10;;;6.30;99.90;;;;;;5019735;28;20483;-75
2023/03/11 11:50:37;;;;;;;0.50;0.10;;;6.30;99.90;;;;;;5023214;28;20484;-73
2023/03/11 11:53:14;;;;;;;0.50;0.10;;;6.30;99.90;;;;;;5026492;28;20457;-75
2023/03/11 11:55:47;;;;;;;0.50;0.10;;;6.20;99.90;;;;;;5025115;28;20497;-74
2023/03/11 11:58:17;;;;;;;0.50;0.10;;;6.20;99.90;;;;;;5020369;28;20504;-75
2023/03/11 12:00:55;;;;;;;0.50;0.10;;;6.20;99.90;;;;;;5015559;28;20446;-73
2023/03/11 12:03:38;;;;;;;0.50;0.10;;;6.20;99.90;;;;;;5032377;28;20526;-75
2023/03/11 12:06:15;;;;;;;0.50;0.10;;;6.10;99.90;;;;;;5031005;28;20434;-76
2023/03/11 12:08:51;;;;;;;0.50;0.10;;;6.10;99.90;;;;;;5030842;28;20475;-76
2023/03/11 12:11:25;;;;;;;0.50;0.10;;;6.00;99.90;;;;;;5026210;28;20493;-76
2023/03/11 12:14:02;;;;;;;0.50;0.10;;;6.00;99.90;;;;;;5031064;28;20453;-75
2023/03/11 12:16:40;;;;;;;0.50;0.10;;;6.10;99.90;;;;;;5018451;28;20466;-74
2023/03/11 12:19:21;;;;;;;0.50;0.20;;;6.10;99.90;;;;;;5029129;28;20484;-77
2023/03/11 12:22:15;;;;;;;0.50;0.10;;;6.00;99.90;;;;;;5033330;28;20512;-75
2023/03/11 12:25:01;;;;;;;0.50;0.10;;;6.00;99.90;;;;;;5021870;28;20435;-72
2023/03/11 12:27:34;;;;;;;0.50;0.10;;;5.90;99.90;;;;;;5017936;28;20494;-75
2023/03/11 12:30:11;;;;;;;0.50;0.10;;;6.00;99.90;;;;;;5023549;28;20466;-75
2023/03/11 12:32:43;;;;;;;0.50;0.20;;;6.00;99.90;;;;;;5026694;28;20473;-74
2023/03/11 12:35:22;;;;;;;0.50;0.20;;;6.10;99.90;;;;;;5030910;28;20904;-74
2023/03/11 12:38:06;;;;;;;0.50;0.10;;;6.10;99.90;;;;;;5019980;28;20440;-73
2023/03/11 12:40:58;;;;;;;0.50;0.10;;;6.30;99.90;;;;;;5023133;28;20448;-74
2023/03/11 12:43:59;;;;;;;0.50;0.10;;;6.30;99.90;;;;;;5014617;28;20437;-75
2023/03/11 12:47:00;;;;;;;0.50;0.10;;;6.30;99.90;;;;;;5031622;28;20447;-74
2023/03/11 12:49:31;;;;;;;0.50;0.10;;;6.40;99.90;;;;;;5032316;28;20442;-75
2023/03/11 12:52:05;;;;;;;0.50;0.13;;;6.40;99.90;;;;;;5030945;28;20463;-74
2023/03/11 12:54:34;;;;;;;0.50;0.10;;;6.40;99.90;;;;;;5016515;28;20446;-75
2023/03/11 12:57:05;;;;;;;0.50;0.10;;;6.40;99.90;;;;;;5031327;28;20446;-75
2023/03/11 13:00:06;;;;;;;0.50;0.17;;;6.50;99.90;;;;;;5032028;28;20435;-76
2023/03/11 13:03:12;;;;;;;0.50;0.10;;;6.70;99.90;;;;;;5031954;28;20501;-77
2023/03/11 13:05:53;;;;;;;0.50;0.20;;;6.70;99.90;;;;;;5031634;28;20445;-75
2023/03/11 13:08:23;;;;;;;0.50;0.10;;;6.70;99.90;;;;;;5017913;28;20586;-74
2023/03/11 13:10:52;;;;;;;0.50;0.10;;;6.60;99.90;;;;;;5031498;28;20481;-73
2023/03/11 13:13:32;;;;;;;0.50;0.10;;;6.60;99.90;;;;;;5032505;28;20516;-75
2023/03/11 13:16:40;;;;;;;0.50;0.10;;;6.60;99.90;;;;;;5020446;28;21201;-75
2023/03/11 13:19:34;;;;;;;0.50;0.10;;;6.60;99.90;;;;;;5012882;28;20446;-77
2023/03/11 13:22:05;;;;;;;0.50;0.10;;;6.60;99.90;;;;;;5013722;28;20978;-74
2023/03/11 13:24:48;;;;;;;0.50;0.10;;;6.60;99.90;;;;;;5031707;28;20454;-75
2023/03/11 13:27:27;;;;;;;0.50;0.10;;;6.60;99.90;;;;;;5032511;28;20450;-74
2023/03/11 13:30:01;;;;;;;0.50;0.10;;;6.60;99.90;;;;;;5032538;28;20454;-75
2023/03/11 13:32:53;;;;;;;0.50;0.20;;;6.60;99.90;;;;;;5032252;28;20865;-75
2023/03/11 13:35:33;;;;;;;0.50;0.10;;;6.60;99.90;;;;;;5012384;28;20455;-75
2023/03/11 13:38:26;;;;;;;0.50;0.10;;;6.50;99.90;;;;;;5012450;28;20447;-74
2023/03/11 13:40:54;;;;;;;0.50;0.10;;;6.50;99.90;;;;;;5012637;28;21004;-75
2023/03/11 13:43:24;;;;;;;0.50;0.10;;;6.50;99.90;;;;;;5012536;28;20450;-76
2023/03/11 13:45:54;;;;;;;0.50;0.10;;;6.50;99.90;;;;;;5019561;28;20940;-73
2023/03/11 13:48:29;;;;;;;0.50;0.10;;;6.50;99.90;;;;;;5016246;28;20867;-76
2023/03/11 13:51:01;;;;;;;0.50;0.20;;;6.60;99.90;;;;;;5016337;28;20463;-76
2023/03/11 13:53:33;;;;;;;0.50;0.10;;;6.60;99.90;;;;;;5016388;28;21036;-76
2023/03/11 13:56:01;;;;;;;0.50;0.30;;;6.60;99.90;;;;;;5016217;28;20463;-74
2023/03/11 13:58:29;;;;;;;0.50;0.10;;;6.60;99.90;;;;;;5016571;28;20451;-75
2023/03/11 14:00:58;;;;;;;0.50;0.10;;;6.60;99.90;;;;;;5017120;28;20514;-75
2023/03/11 14:03:29;;;;;;;0.50;0.10;;;6.60;99.90;;;;;;5027608;28;20446;-75
2023/03/11 14:05:58;;;;;;;0.50;0.10;;;6.60;99.90;;;;;;5031481;28;20860;-74
2023/03/11 14:08:33;;;;;;;0.50;0.10;;;6.40;99.90;;;;;;5027864;28;20479;-75
2023/03/11 14:11:03;;;;;;;0.50;0.10;;;6.50;99.90;;;;;;5028799;28;20492;-76
2023/03/11 14:13:32;;;;;;;0.50;0.20;;;6.40;99.90;;;;;;5028631;28;20459;-74
2023/03/11 14:16:03;;;;;;;0.50;0.10;;;6.40;99.90;;;;;;5034570;28;20450;-74
2023/03/11 14:18:34;;;;;;;0.50;0.10;;;6.40;99.90;;;;;;5022192;28;20439;-76
2023/03/11 14:21:04;;;;;;;0.50;0.10;;;6.30;99.90;;;;;;5017812;28;20483;-75
2023/03/11 14:23:41;;;;;;;0.50;0.10;;;6.20;99.90;;;;;;5029943;28;20447;-75
2023/03/11 14:26:13;;;;;;;0.50;0.10;;;6.20;99.90;;;;;;5032951;28;20461;-75
2023/03/11 14:28:43;;;;;;;0.50;0.10;;;6.00;99.90;;;;;;5036642;28;20482;-75
2023/03/11 14:31:29;;;;;;;0.50;0.20;;;5.80;99.90;;;;;;5033494;28;21070;-75
2023/03/11 14:34:03;;;;;;;1.53;1.43;;;8.10;99.90;;;;;;5025875;28;20525;-74
2023/03/11 14:36:39;;;;;;;0.50;0.10;;;5.90;99.90;;;;;;5035548;28;20449;-73
2023/03/11 14:39:23;;;;;;;0.50;0.10;;;5.90;99.90;;;;;;5036780;28;20960;-73
2023/03/11 14:41:52;;;;;;;0.50;0.10;;;6.00;99.90;;;;;;5029193;28;20486;-75
2023/03/11 14:44:23;;;;;;;0.50;0.10;;;6.10;99.90;;;;;;5028560;28;20949;-76
2023/03/11 14:46:52;;;;;;;0.50;0.10;;;6.20;99.90;;;;;;5030265;28;20516;-75
2023/03/11 14:49:22;;;;;;;0.50;0.10;;;6.20;99.90;;;;;;5026183;28;20845;-75
2023/03/11 14:51:55;;;;;;;0.50;0.10;;;6.60;99.90;;;;;;5035394;28;20552;-75
2023/03/11 14:54:28;;;;;;;0.50;0.10;;;6.70;99.90;;;;;;5031115;28;20814;-75
2023/03/11 14:57:01;;;;;;;0.50;0.10;;;6.80;99.90;;;;;;5030990;28;20442;-76
2023/03/11 14:59:32;;;;;;;0.50;0.10;;;6.90;99.90;;;;;;5035928;28;20443;-73
2023/03/11 15:02:25;;;;;;;0.50;0.10;;;7.00;99.90;;;;;;5034432;28;20566;-74
2023/03/11 15:04:55;;;;;;;0.50;0.10;;;7.00;99.90;;;;;;5026631;28;20458;-75
2023/03/11 15:07:25;;;;;;;0.50;0.10;;;7.20;99.90;;;;;;5022725;28;20481;-78
2023/03/11 15:09:56;;;;;;;0.50;0.10;;;7.20;99.90;;;;;;5015478;28;20484;-77
2023/03/11 15:12:33;;;;;;;0.50;0.10;;;7.00;99.90;;;;;;5015828;28;20475;-76
2023/03/11 15:15:01;;;;;;;0.50;0.10;;;6.90;99.90;;;;;;5016908;28;20446;-75
2023/03/11 15:17:30;;;;;;;0.50;0.10;;;6.90;99.90;;;;;;5015687;28;20451;-73
2023/03/11 15:20:23;;;;;;;0.50;0.10;;;7.00;99.90;;;;;;5016340;28;20499;-75
2023/03/11 15:22:57;;;;;;;0.50;0.10;;;7.00;99.90;;;;;;5031969;28;20513;-76
2023/03/11 15:25:28;;;;;;;0.50;0.10;;;6.90;99.90;;;;;;5026477;28;20516;-75
2023/03/11 15:27:56;;;;;;;0.50;0.10;;;6.50;99.90;;;;;;5018728;28;20436;-75
2023/03/11 15:30:26;;;;;;;0.50;0.10;;;6.40;99.90;;;;;;5016753;28;21070;-76
2023/03/11 15:32:54;;;;;;;0.50;0.20;;;6.30;99.90;;;;;;5019315;28;20789;-75
2023/03/11 15:35:25;;;;;;;0.50;0.10;;;6.40;99.90;;;;;;5035383;28;20501;-76
2023/03/11 15:38:12;;;;;;;0.50;0.20;;;6.60;99.90;;;;;;5036814;28;20843;-74
2023/03/11 15:40:52;;;;;;;0.50;0.10;;;6.80;99.90;;;;;;5049286;28;20457;-76
2023/03/11 15:43:24;;;;;;;0.50;0.10;;;6.70;99.90;;;;;;5047050;28;20481;-76
2023/03/11 15:45:54;;;;;;;0.50;0.10;;;6.90;99.90;;;;;;5033145;28;20440;-73
2023/03/11 15:48:22;;;;;;;0.50;0.10;;;6.90;99.90;;;;;;5035800;28;20446;-70
2023/03/11 15:50:51;;;;;;;0.50;0.10;;;6.80;99.90;;;;;;5017522;28;20536;-74
2023/03/11 15:53:22;;;;;;;0.50;0.10;;;6.70;99.90;;;;;;5021385;28;20648;-73
2023/03/11 15:55:54;;;;;;;0.50;0.10;;;6.90;99.90;;;;;;5017844;28;20489;-74
2023/03/11 15:58:22;;;;;;;0.50;0.10;;;6.90;99.90;;;;;;5025933;28;20443;-76
2023/03/11 16:00:52;;;;;;;0.50;0.10;;;6.80;99.90;;;;;;5029880;28;21044;-73
2023/03/11 16:03:20;;;;;;;0.50;0.10;;;6.80;99.90;;;;;;5037998;28;20454;-73
2023/03/11 16:05:48;;;;;;;0.50;0.10;;;6.80;99.90;;;;;;5019653;28;20451;-73
2023/03/11 16:08:16;;;;;;;0.50;0.10;;;7.10;99.90;;;;;;5016606;28;20824;-74
2023/03/11 16:10:44;;;;;;;0.50;0.10;;;7.40;99.90;;;;;;5026649;28;20487;-74
2023/03/11 16:13:15;;;;;;;0.50;0.10;;;7.40;99.90;;;;;;5026078;28;20443;-74
2023/03/11 16:15:45;;;;;;;0.50;0.10;;;7.50;99.90;;;;;;5034998;28;20520;-74
2023/03/11 16:18:13;;;;;;;0.50;0.10;;;7.70;99.90;;;;;;5028328;28;20973;-76
2023/03/11 16:20:44;;;;;;;0.50;0.10;;;7.90;99.90;;;;;;5036630;28;20443;-74
2023/03/11 16:23:17;;;;;;;0.50;0.30;;;5.40;99.90;;;;;;5027013;28;20455;-74
2023/03/11 16:25:46;;;;;;;0.50;0.10;;;7.80;99.90;;;;;;5038687;28;20937;-78
2023/03/11 16:28:16;;;;;;;0.50;0.10;;;7.60;99.90;;;;;;5038469;28;20462;-76
2023/03/11 16:30:50;;;;;;;0.50;0.10;;;7.20;99.90;;;;;;5017076;28;20479;-76
2023/03/11 16:33:19;;;;;;;0.50;0.10;;;;;;;;;;5022762;28;20439;-77
2023/03/11 16:35:48;;;;;;;0.50;0.10;;;7.00;99.90;;;;;;5017158;28;20446;-74
2023/03/11 16:38:18;;;;;;;0.50;0.10;;;7.00;99.90;;;;;;5038892;28;20441;-76
2023/03/11 16:40:56;;;;;;;0.50;0.10;;;7.00;99.90;;;;;;5038147;28;20447;-75
2023/03/11 16:43:26;;;;;;;0.50;0.10;;;7.10;99.90;;;;;;5034610;28;20542;-74
2023/03/11 16:45:55;;;;;;;0.50;0.10;;;7.10;99.90;;;;;;5033395;28;20500;-74
2023/03/11 16:48:24;;;;;;;0.50;0.10;;;7.40;99.90;;;;;;5034980;28;20455;-74
2023/03/11 16:50:52;;;;;;;0.50;0.10;;;7.70;99.90;;;;;;5023058;28;20487;-75
2023/03/11 16:53:20;;;;;;;0.50;0.10;;;7.70;99.90;;;;;;5020207;28;20906;-73
2023/03/11 16:55:48;;;;;;;18.87;17.83;;;7.90;99.90;;;;;;5022460;28;20451;-74
2023/03/11 16:58:16;;;;;;;0.50;0.10;;;8.10;99.90;;;;;;5025473;28;20454;-75
2023/03/11 17:00:46;;;;;;;0.50;0.10;;;8.30;99.90;;;;;;5032714;28;20482;-74
2023/03/11 17:03:16;;;;;;;0.50;0.10;;;8.30;99.90;;;;;;5030492;28;20455;-76
2023/03/11 17:05:49;;;;;;;0.50;0.10;;;8.20;99.90;;;;;;5026093;28;20439;-73
2023/03/11 17:08:17;;;;;;;0.50;0.10;;;8.20;99.90;;;;;;5030507;28;20447;-74
2023/03/11 17:10:45;;;;;;;0.50;0.10;;;8.00;99.90;;;;;;5031340;28;20509;-74
2023/03/11 17:13:14;;;;;;;0.50;0.10;;;8.00;99.90;;;;;;5017377;28;20460;-74
2023/03/11 17:15:57;;;;;;;0.50;0.10;;;7.90;99.90;;;;;;5026764;28;20447;-74
2023/03/11 17:18:24;;;;;;;0.50;0.10;;;7.70;99.90;;;;;;5030079;28;20451;-75
2023/03/11 17:20:52;;;;;;;0.50;0.10;;;7.40;99.90;;;;;;5030515;28;20479;-75
2023/03/11 17:23:20;;;;;;;0.50;0.10;;;7.40;99.90;;;;;;5038267;28;20964;-76